Time;durP1;ratioP1;P1;durP2;ratioP2;P2;SDS_P1;SDS_P2;PMS_P1;PMS_P2;Temp;Humidity;BMP_temperature;BMP_pressure;BME280_temperature;BME280_humidity;BME280_pressure;Samples;Min_cycle;Max_cycle;Signal;HPM_P1;HPM_P2
2022/04/24 00:01:18;;;;;;;12.37;8.00;;;;;;;8.73;100.00;99170.53;1784486;80;21025;-69
2022/04/24 00:03:45;;;;;;;14.13;9.38;;;;;;;8.72;100.00;99167.50;1784693;80;21088;-69
2022/04/24 00:06:12;;;;;;;14.15;9.40;;;;;;;8.69;100.00;99167.65;1784630;80;21048;-71
2022/04/24 00:08:40;;;;;;;17.10;9.95;;;;;;;8.67;100.00;99168.17;1756674;80;21512;-69
2022/04/24 00:11:07;;;;;;;16.82;9.30;;;;;;;8.66;100.00;99169.11;1784698;80;20993;-70
2022/04/24 00:13:41;;;;;;;12.10;8.45;;;;;;;8.64;100.00;99165.70;1784969;80;21604;-70
2022/04/24 00:16:10;;;;;;;12.28;8.20;;;;;;;8.64;100.00;99169.64;1784845;80;20981;-70
2022/04/24 00:18:38;;;;;;;15.08;9.13;;;;;;;8.63;100.00;99172.73;1784916;80;21016;-71
2022/04/24 00:21:05;;;;;;;14.10;9.53;;;;;;;8.61;100.00;99174.56;1784966;80;21040;-69
2022/04/24 00:23:32;;;;;;;14.80;8.90;;;;;;;8.58;100.00;99180.80;1784797;80;21095;-70
2022/04/24 00:26:00;;;;;;;16.42;9.78;;;;;;;8.59;100.00;99178.56;1785275;80;21037;-71
2022/04/24 00:28:28;;;;;;;11.33;8.18;;;;;;;8.58;100.00;99184.73;1785070;80;21028;-70
2022/04/24 00:30:55;;;;;;;15.05;8.90;;;;;;;8.57;100.00;99189.58;1778834;80;20969;-71
2022/04/24 00:33:22;;;;;;;16.35;8.88;;;;;;;8.54;100.00;99187.09;1753882;81;21032;-70
2022/04/24 00:35:51;;;;;;;12.50;9.48;;;;;;;8.54;100.00;99187.09;1753931;81;22040;-70
2022/04/24 00:38:18;;;;;;;20.90;9.90;;;;;;;8.54;100.00;99185.79;1753796;81;21037;-69
2022/04/24 00:40:47;;;;;;;15.25;8.70;;;;;;;8.47;100.00;99181.73;1753789;81;21068;-69
2022/04/24 00:43:15;;;;;;;16.35;9.03;;;;;;;8.51;100.00;99185.94;1753922;81;21013;-70
2022/04/24 00:46:29;;;;;;;15.40;9.95;;;;;;;8.52;100.00;99182.84;1751141;81;21025;-70
2022/04/24 00:48:57;;;;;;;15.53;9.38;;;;;;;8.51;100.00;99174.56;1740026;81;21466;-70
2022/04/24 00:51:25;;;;;;;12.98;8.70;;;;;;;8.49;100.00;99166.77;1753797;81;21071;-69
2022/04/24 00:53:53;;;;;;;16.42;9.35;;;;;;;8.49;100.00;99167.21;1753702;81;21249;-71
2022/04/24 00:56:22;;;;;;;15.18;9.00;;;;;;;8.48;100.00;99171.61;1747846;82;21040;-71
2022/04/24 00:58:50;;;;;;;14.95;9.15;;;;;;;8.50;100.00;99159.28;1748306;82;21044;-70
2022/04/24 01:01:17;;;;;;;17.17;9.73;;;;;;;8.51;100.00;99158.38;1748516;82;20994;-70
2022/04/24 01:03:45;;;;;;;13.35;9.33;;;;;;;8.52;100.00;99158.76;1748150;82;21029;-70
2022/04/24 01:06:14;;;;;;;16.85;9.18;;;;;;;8.54;100.00;99159.55;1747847;82;21068;-71
2022/04/24 01:08:42;;;;;;;15.13;9.28;;;;;;;8.54;100.00;99160.86;1747969;82;21033;-70
2022/04/24 01:11:10;;;;;;;18.50;10.30;;;;;;;8.55;100.00;99146.80;1748021;82;21064;-70
2022/04/24 01:13:37;;;;;;;16.97;9.00;;;;;;;8.57;100.00;99150.22;1748183;82;21064;-69
2022/04/24 01:16:04;;;;;;;16.25;8.40;;;;;;;8.58;100.00;99151.06;1748089;82;21033;-69
2022/04/24 01:18:33;;;;;;;14.63;9.30;;;;;;;8.59;100.00;99153.63;1748346;82;21021;-68
2022/04/24 01:21:10;;;;;;;16.00;9.58;;;;;;;8.59;100.00;99158.88;1748101;82;21545;-71
2022/04/24 01:23:40;;;;;;;13.75;9.73;;;;;;;8.61;100.00;99159.66;1748164;82;21002;-69
2022/04/24 01:26:08;;;;;;;13.90;9.33;;;;;;;8.60;100.00;99158.41;1748339;82;21028;-70
2022/04/24 01:28:36;;;;;;;15.93;10.23;;;;;;;8.59;100.00;99164.13;1719410;82;21033;-69
2022/04/24 01:31:05;;;;;;;18.02;11.22;;;;;;;8.58;100.00;99159.81;1756087;80;21502;-69
2022/04/24 01:33:32;;;;;;;16.15;10.70;;;;;;;8.59;100.00;99157.56;1778943;80;21029;-70
2022/04/24 01:35:59;;;;;;;15.05;10.43;;;;;;;8.62;100.00;99163.13;1779014;80;21025;-71
2022/04/24 01:38:29;;;;;;;16.67;10.00;;;;;;;8.63;100.00;99152.16;1778920;80;21033;-71
2022/04/24 01:40:58;;;;;;;16.07;11.10;;;;;;;8.66;100.00;99157.30;1779037;80;21026;-69
2022/04/24 01:43:24;;;;;;;18.17;10.25;;;;;;;8.67;100.00;99152.42;1779191;80;21141;-70
2022/04/24 01:45:53;;;;;;;17.32;10.58;;;;;;;8.66;100.00;99156.83;1778674;80;21024;-70
2022/04/24 01:48:20;;;;;;;22.10;11.33;;;;;;;8.67;100.00;99158.52;1778984;80;21025;-71
2022/04/24 01:50:56;;;;;;;13.75;9.38;;;;;;;8.66;100.00;99161.23;1779031;80;21077;-69
2022/04/24 01:53:23;;;;;;;13.03;9.30;;;;;;;8.65;100.00;99159.08;1778755;80;21056;-70
2022/04/24 01:55:50;;;;;;;12.20;9.50;;;;;;;8.68;100.00;99156.77;1782758;80;21133;-70
2022/04/24 01:58:16;;;;;;;13.68;9.55;;;;;;;8.68;100.00;99157.63;1784857;80;21490;-70
2022/04/24 02:00:44;;;;;;;12.85;9.40;;;;;;;8.69;100.00;99159.78;1784666;80;21554;-70
2022/04/24 02:03:11;;;;;;;17.25;10.32;;;;;;;8.70;100.00;99162.81;1784890;80;21016;-70
2022/04/24 02:05:39;;;;;;;16.07;10.80;;;;;;;8.73;100.00;99162.66;1784825;80;21072;-70
2022/04/24 02:08:07;;;;;;;15.40;10.63;;;;;;;8.73;100.00;99165.29;1784820;80;21240;-69
2022/04/24 02:10:35;;;;;;;21.60;11.33;;;;;;;8.75;100.00;99164.77;1784689;80;21005;-70
2022/04/24 02:13:03;;;;;;;15.65;11.60;;;;;;;8.75;100.00;99168.70;1784670;80;21080;-70
2022/04/24 02:15:30;;;;;;;18.12;11.03;;;;;;;8.76;100.00;99169.08;1784839;80;21061;-69
2022/04/24 02:17:58;;;;;;;17.77;12.03;;;;;;;8.77;100.00;99169.48;1784752;80;20997;-70
2022/04/24 02:20:26;;;;;;;17.23;11.30;;;;;;;8.76;100.00;99169.92;1784802;80;21485;-69
2022/04/24 02:22:55;;;;;;;19.12;11.35;;;;;;;8.79;100.00;99180.77;1784731;80;21021;-69
2022/04/24 02:25:21;;;;;;;18.98;11.45;;;;;;;8.81;100.00;99181.53;1784651;80;21596;-70
2022/04/24 02:27:49;;;;;;;19.00;11.88;;;;;;;8.81;100.00;99186.78;1784789;80;21079;-69
2022/04/24 02:30:17;;;;;;;18.90;13.10;;;;;;;8.81;100.00;99186.78;1784586;80;21076;-69
2022/04/24 02:32:45;;;;;;;14.07;10.90;;;;;;;8.82;100.00;99187.19;1755063;80;21240;-69
2022/04/24 02:35:12;;;;;;;18.98;11.45;;;;;;;8.82;100.00;99186.72;1753489;81;21001;-69
2022/04/24 02:37:42;;;;;;;16.25;11.22;;;;;;;8.82;100.00;99178.84;1753417;81;21068;-70
2022/04/24 02:40:10;;;;;;;20.45;13.20;;;;;;;8.86;100.00;99182.20;1753957;81;21049;-69
2022/04/24 02:42:39;;;;;;;20.95;11.68;;;;;;;8.87;100.00;99186.52;1753668;81;21056;-68
2022/04/24 02:45:07;;;;;;;21.55;14.10;;;;;;;8.87;100.00;99185.20;1753753;81;21488;-70
2022/04/24 02:47:34;;;;;;;22.55;14.65;;;;;;;8.89;100.00;99189.93;1753282;81;22261;-70
2022/04/24 02:50:01;;;;;;;23.45;14.30;;;;;;;8.88;100.00;99189.55;1753637;81;21051;-71
2022/04/24 02:52:29;;;;;;;19.40;13.32;;;;;;;8.85;100.00;99188.35;1753564;81;21047;-70
2022/04/24 02:54:56;;;;;;;22.55;13.95;;;;;;;8.87;100.00;99201.42;1752435;81;21009;-69
2022/04/24 02:57:23;;;;;;;21.27;15.45;;;;;;;8.87;100.00;99199.64;1748105;82;21334;-69
2022/04/24 02:59:51;;;;;;;19.70;13.32;;;;;;;8.88;100.00;99199.17;1747993;82;21029;-70
2022/04/24 03:02:18;;;;;;;26.55;13.20;;;;;;;8.90;100.00;99208.69;1747910;82;21052;-71
2022/04/24 03:04:46;;;;;;;18.65;13.72;;;;;;;8.91;100.00;99213.03;1748076;82;21025;-68
2022/04/24 03:07:12;;;;;;;18.92;12.85;;;;;;;8.90;100.00;99216.56;1747808;82;21089;-70
2022/04/24 03:09:41;;;;;;;21.33;13.28;;;;;;;8.90;100.00;99217.03;1748028;82;21246;-71
2022/04/24 03:12:10;;;;;;;18.02;12.65;;;;;;;8.91;100.00;99227.48;1747831;82;21029;-70
2022/04/24 03:14:38;;;;;;;19.07;13.20;;;;;;;8.91;100.00;99227.48;1747980;82;21084;-70
2022/04/24 03:17:05;;;;;;;16.45;11.63;;;;;;;8.92;100.00;99233.10;1747842;82;21057;-70
2022/04/24 03:19:33;;;;;;;20.35;13.10;;;;;;;8.90;100.00;99240.20;1748047;82;21080;-70
2022/04/24 03:22:00;;;;;;;19.37;12.93;;;;;;;8.90;100.00;99242.82;1747827;82;21297;-70
2022/04/24 03:24:28;;;;;;;17.12;11.97;;;;;;;8.88;100.00;99248.63;1747895;82;21093;-70
2022/04/24 03:26:56;;;;;;;19.12;13.13;;;;;;;8.89;100.00;99249.47;1747791;82;21033;-70
2022/04/24 03:29:24;;;;;;;20.20;13.35;;;;;;;8.89;100.00;99258.20;1748019;82;21465;-69
2022/04/24 03:31:53;;;;;;;21.48;12.18;;;;;;;8.91;100.00;99252.42;1766131;80;21068;-71
2022/04/24 03:34:23;;;;;;;15.30;11.18;;;;;;;8.90;100.00;99253.32;1777732;80;20989;-70
2022/04/24 03:36:51;;;;;;;18.23;12.78;;;;;;;8.91;100.00;99256.36;1778706;80;21305;-71
2022/04/24 03:39:20;;;;;;;19.85;12.93;;;;;;;8.92;100.00;99250.64;1778835;80;21016;-70
2022/04/24 03:41:48;;;;;;;21.20;13.63;;;;;;;8.95;100.00;99263.19;1778945;80;21072;-71
2022/04/24 03:44:14;;;;;;;19.82;12.73;;;;;;;8.97;100.00;99257.41;1778897;80;21024;-69
2022/04/24 03:46:41;;;;;;;20.15;13.83;;;;;;;8.99;100.00;99263.42;1778700;80;21212;-70
2022/04/24 03:49:08;;;;;;;21.27;14.07;;;;;;;9.01;100.00;99266.84;1778825;80;21021;-69
2022/04/24 03:51:36;;;;;;;18.27;13.30;;;;;;;9.02;100.00;99269.87;1778909;80;21053;-69
2022/04/24 03:54:03;;;;;;;21.65;12.88;;;;;;;9.08;100.00;99278.39;1779038;80;21038;-70
2022/04/24 03:56:31;;;;;;;18.10;12.70;;;;;;;9.09;100.00;99276.14;1782762;80;21544;-71
2022/04/24 03:58:59;;;;;;;21.12;12.90;;;;;;;9.09;100.00;99286.65;1784596;80;21165;-69
2022/04/24 04:01:26;;;;;;;19.37;12.82;;;;;;;9.10;100.00;99287.91;1784637;80;21033;-70
2022/04/24 04:03:53;;;;;;;15.78;11.20;;;;;;;9.12;100.00;99282.59;1784686;80;21016;-71
2022/04/24 04:06:20;;;;;;;22.25;13.45;;;;;;;9.13;100.00;99286.91;1784499;80;21013;-71
2022/04/24 04:10:12;;;;;;;22.05;14.63;;;;;;;9.26;100.00;99282.82;1802162;78;28630;-70
2022/04/24 04:12:40;;;;;;;21.27;14.25;;;;;;;9.31;100.00;99290.50;1778384;80;22180;-70
2022/04/24 04:15:09;;;;;;;23.92;14.45;;;;;;;9.34;100.00;99288.59;1771240;79;21221;-71
2022/04/24 04:17:36;;;;;;;21.93;14.53;;;;;;;9.39;100.00;99293.17;1779075;79;21770;-70
2022/04/24 04:20:09;;;;;;;18.87;12.82;;;;;;;9.40;100.00;99294.87;1792172;80;21175;-69
2022/04/24 04:22:45;;;;;;;18.35;13.22;;;;;;;9.42;100.00;99296.97;1789050;80;21584;-71
2022/04/24 04:25:11;;;;;;;18.98;12.58;;;;;;;9.49;100.00;99299.33;1766387;79;21493;-71
2022/04/24 04:27:39;;;;;;;16.45;11.60;;;;;;;9.51;100.00;99301.42;1773337;79;21128;-70
2022/04/24 04:30:09;;;;;;;21.27;12.13;;;;;;;9.54;100.00;99305.22;1775453;79;21111;-70
2022/04/24 04:32:38;;;;;;;19.55;12.15;;;;;;;9.57;100.00;99310.32;1759706;81;20970;-70
2022/04/24 04:35:09;;;;;;;21.07;15.00;;;;;;;9.60;100.00;99314.14;1758706;81;21048;-71
2022/04/24 04:37:37;;;;;;;23.95;15.03;;;;;;;9.62;100.00;99313.62;1741545;81;21119;-69
2022/04/24 04:40:07;;;;;;;24.10;14.63;;;;;;;9.63;100.00;99312.21;1721988;82;21133;-70
2022/04/24 04:42:35;;;;;;;27.00;15.53;;;;;;;9.65;100.00;99314.78;1722440;82;21106;-70
2022/04/24 04:45:06;;;;;;;26.37;14.68;;;;;;;9.68;100.00;99325.14;1725073;83;21152;-70
2022/04/24 04:47:32;;;;;;;28.07;15.55;;;;;;;9.70;100.00;99323.77;1721413;82;21064;-70
2022/04/24 04:49:59;;;;;;;28.57;16.48;;;;;;;9.71;100.00;99325.02;1722741;81;21081;-70
2022/04/24 04:52:26;;;;;;;29.85;16.60;;;;;;;9.71;100.00;99319.77;1725712;82;21152;-70
2022/04/24 04:54:52;;;;;;;32.45;18.77;;;;;;;9.69;100.00;99320.30;1721061;82;21086;-71
2022/04/24 04:57:20;;;;;;;33.55;18.30;;;;;;;9.71;100.00;99327.66;1721010;82;21251;-71
2022/04/24 04:59:47;;;;;;;29.30;16.95;;;;;;;9.69;100.00;99328.18;1723602;82;21115;-70
2022/04/24 05:02:13;;;;;;;23.80;14.65;;;;;;;9.70;100.00;99325.93;1735392;81;21079;-71
2022/04/24 05:04:43;;;;;;;20.97;13.20;;;;;;;9.63;100.00;99333.71;1743834;81;21348;-70
2022/04/24 05:07:11;;;;;;;22.05;13.70;;;;;;;9.58;100.00;99334.39;1735526;81;21069;-69
2022/04/24 05:09:39;;;;;;;18.82;13.53;;;;;;;9.56;100.00;99350.69;1753198;81;21552;-71
2022/04/24 05:12:10;;;;;;;18.32;12.80;;;;;;;9.53;100.00;99348.20;1744448;81;21604;-71
2022/04/24 05:14:37;;;;;;;18.17;11.22;;;;;;;9.54;100.00;99342.86;1740049;81;21048;-71
2022/04/24 05:17:05;;;;;;;18.77;12.35;;;;;;;9.58;100.00;99344.44;1727921;81;21206;-70
2022/04/24 05:19:33;;;;;;;18.55;11.80;;;;;;;9.65;100.00;99345.02;1743333;81;21072;-71
2022/04/24 05:22:01;;;;;;;17.02;11.33;;;;;;;9.70;100.00;99350.91;1740323;81;21176;-70
2022/04/24 05:24:29;;;;;;;17.92;12.25;;;;;;;9.73;100.00;99348.16;1751441;81;21077;-70
2022/04/24 05:26:56;;;;;;;16.90;10.32;;;;;;;9.75;100.00;99352.85;1754368;81;21045;-69
2022/04/24 05:29:24;;;;;;;16.07;10.35;;;;;;;9.81;100.00;99352.58;1730649;81;21207;-70
2022/04/24 05:31:51;;;;;;;13.35;9.53;;;;;;;9.86;100.00;99354.53;1726451;81;21080;-70
2022/04/24 05:34:19;;;;;;;13.58;8.55;;;;;;;9.93;100.00;99357.73;1724450;83;20989;-71
2022/04/24 05:36:46;;;;;;;11.48;8.08;;;;;;;9.98;100.00;99357.52;1724614;82;21020;-70
2022/04/24 05:39:14;;;;;;;12.45;7.65;;;;;;;10.03;100.00;99361.66;1725889;83;21051;-71
2022/04/24 05:41:42;;;;;;;9.98;6.97;;;;;;;10.14;100.00;99365.54;1725739;82;22134;-71
2022/04/24 05:44:08;;;;;;;10.05;7.25;;;;;;;10.26;100.00;99364.51;1727054;82;21033;-70
2022/04/24 05:46:36;;;;;;;7.92;5.28;;;;;;;10.38;100.00;99366.20;1724206;82;21619;-70
2022/04/24 05:49:04;;;;;;;9.93;7.10;;;;;;;10.48;100.00;99363.02;1725714;82;21600;-70
2022/04/24 05:51:33;;;;;;;10.20;6.72;;;;;;;10.68;100.00;99373.90;1726139;82;21009;-70
2022/04/24 05:54:00;;;;;;;8.55;6.20;;;;;;;10.83;100.00;99371.42;1726243;83;21695;-71
2022/04/24 05:56:28;;;;;;;9.60;5.78;;;;;;;11.03;100.00;99371.75;1726403;82;22039;-70
2022/04/24 05:58:55;;;;;;;8.93;6.50;;;;;;;11.63;100.00;99371.26;1726123;82;21052;-71
2022/04/24 06:01:22;;;;;;;8.53;5.78;;;;;;;12.53;100.00;99372.03;1733559;81;21037;-70
2022/04/24 06:03:50;;;;;;;8.13;5.65;;;;;;;13.53;100.00;99370.16;1751294;81;22064;-72
2022/04/24 06:06:18;;;;;;;7.08;4.40;;;;;;;14.53;94.79;99363.34;1748449;81;21143;-69
2022/04/24 06:08:46;;;;;;;8.30;5.62;;;;;;;15.36;88.06;99367.56;1739337;81;21152;-70
2022/04/24 06:11:13;;;;;;;6.25;4.50;;;;;;;16.14;82.38;99372.22;1748116;81;21075;-70
2022/04/24 06:13:42;;;;;;;5.70;3.70;;;;;;;16.83;77.32;99367.66;1740412;81;21106;-72
2022/04/24 06:16:10;;;;;;;6.53;3.77;;;;;;;17.55;73.44;99369.27;1746527;81;21577;-72
2022/04/24 06:18:38;;;;;;;5.03;3.47;;;;;;;18.24;67.48;99363.34;1746014;81;21202;-71
2022/04/24 06:21:07;;;;;;;5.25;2.98;;;;;;;18.75;59.71;99360.98;1729146;81;21060;-70
2022/04/24 06:23:35;;;;;;;5.10;3.15;;;;;;;19.02;55.61;99366.71;1753231;81;21073;-71
2022/04/24 06:26:02;;;;;;;5.70;3.85;;;;;;;18.82;56.85;99367.56;1744441;81;21199;-70
2022/04/24 06:28:30;;;;;;;5.97;2.90;;;;;;;18.87;55.89;99369.35;1753557;81;21124;-69
2022/04/24 06:30:58;;;;;;;7.20;3.12;;;;;;;19.14;55.00;99374.66;1744238;81;21089;-69
2022/04/24 06:33:26;;;;;;;4.33;2.62;;;;;;;19.39;51.42;99368.08;1719903;83;21025;-71
2022/04/24 06:35:53;;;;;;;4.90;3.40;;;;;;;19.62;46.96;99368.77;1710761;82;21059;-69
2022/04/24 06:38:22;;;;;;;4.50;2.92;;;;;;;20.03;46.43;99371.01;1713622;83;21088;-70
2022/04/24 06:40:50;;;;;;;5.10;3.25;;;;;;;20.45;43.06;99364.13;1713111;83;21128;-70
2022/04/24 06:43:16;;;;;;;5.15;3.12;;;;;;;20.77;43.01;99366.59;1698624;83;21214;-70
2022/04/24 06:45:43;;;;;;;5.62;2.50;;;;;;;20.88;42.20;99368.28;1706721;83;21104;-71
2022/04/24 06:48:13;;;;;;;3.83;2.95;;;;;;;20.92;40.33;99369.70;1705585;83;21529;-71
2022/04/24 06:50:43;;;;;;;5.70;2.92;;;;;;;20.79;39.66;99373.98;1722487;82;21104;-71
2022/04/24 06:53:18;;;;;;;3.55;3.02;;;;;;;20.58;39.85;99374.61;1719219;83;20981;-71
2022/04/24 06:55:47;;;;;;;6.25;3.52;;;;;;;20.58;39.42;99382.64;1700594;83;21595;-71
2022/04/24 06:58:16;;;;;;;8.28;4.40;;;;;;;20.77;40.38;99379.12;1702963;83;21120;-70
2022/04/24 07:00:45;;;;;;;5.80;3.80;;;;;;;20.83;39.17;99382.09;1705543;83;21665;-71
2022/04/24 07:03:18;;;;;;;7.20;3.92;;;;;;;20.76;39.72;99385.47;1708715;83;21109;-70
2022/04/24 07:05:46;;;;;;;8.03;4.15;;;;;;;20.81;39.99;99386.73;1702133;83;21020;-73
2022/04/24 07:08:12;;;;;;;4.67;3.02;;;;;;;20.48;39.63;99390.63;1714343;83;21413;-72
2022/04/24 07:10:39;;;;;;;6.30;3.30;;;;;;;20.03;40.30;99391.05;1700444;83;21005;-71
2022/04/24 07:13:07;;;;;;;5.55;2.92;;;;;;;19.60;41.53;99384.94;1706698;83;21021;-71
2022/04/24 07:15:38;;;;;;;5.75;2.87;;;;;;;19.75;41.16;99386.79;1708807;83;21219;-72
2022/04/24 07:18:05;;;;;;;4.03;2.92;;;;;;;19.28;41.24;99383.20;1711497;83;21600;-71
2022/04/24 07:20:32;;;;;;;4.37;3.15;;;;;;;18.97;42.05;99387.60;1713961;83;21151;-70
2022/04/24 07:23:01;;;;;;;3.35;2.95;;;;;;;18.64;41.96;99402.73;1723676;82;21042;-70
2022/04/24 07:25:40;;;;;;;3.72;2.92;;;;;;;18.07;42.95;99401.64;1711148;83;21009;-72
2022/04/24 07:28:08;;;;;;;3.85;3.15;;;;;;;17.80;43.07;99396.99;1722107;83;21109;-71
2022/04/24 07:30:35;;;;;;;3.33;2.95;;;;;;;18.02;44.34;99398.02;1712859;82;21537;-70
2022/04/24 07:33:03;;;;;;;4.85;3.55;;;;;;;18.17;42.05;99384.77;1726356;82;21489;-72
2022/04/24 07:35:33;;;;;;;5.30;3.50;;;;;;;18.35;42.29;99385.60;1726979;82;21048;-70
2022/04/24 07:38:01;;;;;;;4.80;3.58;;;;;;;18.53;41.60;99393.92;1724587;82;21115;-71
2022/04/24 07:40:31;;;;;;;6.05;3.62;;;;;;;18.74;40.67;99389.98;1725895;82;21073;-72
2022/04/24 07:43:06;;;;;;;5.17;3.83;;;;;;;19.01;39.86;99382.38;1725557;82;21029;-71
2022/04/24 07:45:38;;;;;;;5.47;3.60;;;;;;;19.43;38.93;99393.55;1726382;82;21211;-70
2022/04/24 07:48:09;;;;;;;4.00;3.58;;;;;;;19.69;38.95;99396.66;1724615;82;21032;-71
2022/04/24 07:50:37;;;;;;;4.05;3.65;;;;;;;19.97;38.43;99402.27;1726033;83;21088;-70
2022/04/24 07:53:04;;;;;;;4.87;3.98;;;;;;;20.31;37.88;99400.14;1725577;82;21581;-71
2022/04/24 07:55:33;;;;;;;4.95;3.60;;;;;;;20.42;36.41;99401.86;1725367;82;21384;-71
2022/04/24 07:58:01;;;;;;;5.90;4.10;;;;;;;20.55;36.61;99391.75;1725189;82;21257;-72
2022/04/24 08:00:30;;;;;;;6.25;4.30;;;;;;;20.42;36.04;99399.19;1725317;82;21580;-72
2022/04/24 08:03:04;;;;;;;7.03;4.80;;;;;;;20.07;36.32;99398.66;1724567;82;21511;-72
2022/04/24 08:05:39;;;;;;;5.00;4.30;;;;;;;19.87;36.95;99400.41;1725011;82;21195;-71
2022/04/24 08:08:15;;;;;;;7.58;4.42;;;;;;;19.98;37.43;99401.31;1726458;82;21028;-72
2022/04/24 08:10:47;;;;;;;4.95;4.20;;;;;;;20.09;37.11;99409.23;1727044;83;21036;-71
2022/04/24 08:13:15;;;;;;;6.58;4.42;;;;;;;20.26;34.46;99405.89;1727472;82;21112;-71
2022/04/24 08:15:43;;;;;;;4.83;4.33;;;;;;;20.24;34.55;99402.50;1727363;82;21040;-71
2022/04/24 08:18:11;;;;;;;6.97;4.60;;;;;;;20.28;34.87;99398.58;1725967;82;21053;-72
2022/04/24 08:20:40;;;;;;;5.65;4.95;;;;;;;20.24;35.57;99401.67;1725093;82;21095;-72
2022/04/24 08:23:09;;;;;;;9.53;5.72;;;;;;;20.36;35.26;99405.07;1726558;82;21294;-73
2022/04/24 08:25:37;;;;;;;10.23;6.20;;;;;;;20.41;35.00;99405.53;1724248;82;21085;-72
2022/04/24 08:28:08;;;;;;;15.53;7.25;;;;;;;20.49;35.23;99405.67;1725545;82;21096;-72
2022/04/24 08:30:37;;;;;;;13.13;7.20;;;;;;;20.75;35.21;99400.66;1726907;81;21044;-70
2022/04/24 08:33:06;;;;;;;10.50;6.87;;;;;;;21.08;35.30;99398.07;1739656;81;21207;-70
2022/04/24 08:35:33;;;;;;;6.65;4.87;;;;;;;21.36;34.21;99402.20;1735197;81;22211;-71
2022/04/24 08:38:01;;;;;;;6.47;5.30;;;;;;;21.62;31.13;99393.56;1737237;81;21321;-71
2022/04/24 08:40:30;;;;;;;5.92;5.08;;;;;;;21.65;30.33;99401.30;1748195;81;20978;-71
2022/04/24 08:42:56;;;;;;;5.20;4.28;;;;;;;21.58;30.33;99396.55;1755097;81;21054;-69
2022/04/24 08:45:26;;;;;;;5.00;4.50;;;;;;;21.16;30.01;99402.23;1751826;81;21191;-71
2022/04/24 08:47:55;;;;;;;5.30;4.45;;;;;;;21.02;30.98;99393.27;1743386;81;21033;-70
2022/04/24 08:50:25;;;;;;;6.15;4.90;;;;;;;20.95;31.29;99400.19;1743195;81;21248;-71
2022/04/24 08:52:52;;;;;;;7.00;5.37;;;;;;;20.24;31.99;99398.49;1727533;81;21025;-73
2022/04/24 08:55:19;;;;;;;5.08;4.10;;;;;;;20.26;32.27;99391.69;1734912;81;21048;-71
2022/04/24 08:57:45;;;;;;;5.92;4.15;;;;;;;20.65;31.33;99397.14;1740968;81;21558;-71
2022/04/24 09:00:17;;;;;;;6.10;3.90;;;;;;;20.85;30.48;99395.34;1755196;81;21495;-72
2022/04/24 09:02:47;;;;;;;5.12;4.25;;;;;;;20.92;30.14;99397.30;1726920;81;21085;-70
2022/04/24 09:05:14;;;;;;;5.47;4.30;;;;;;;20.73;30.21;99399.98;1735209;81;21054;-71
2022/04/24 09:07:43;;;;;;;5.45;4.33;;;;;;;20.84;29.81;99393.63;1748111;81;21052;-71
2022/04/24 09:10:15;;;;;;;10.03;4.37;;;;;;;20.73;30.05;99398.14;1742708;81;21474;-71
2022/04/24 09:12:40;;;;;;;5.42;4.67;;;;;;;20.78;29.48;99399.06;1743387;81;21198;-71
2022/04/24 09:15:09;;;;;;;5.33;4.40;;;;;;;20.18;31.69;99396.39;1735935;81;21058;-71
2022/04/24 09:17:36;;;;;;;4.47;4.05;;;;;;;20.37;31.71;99402.77;1748855;81;21138;-71
2022/04/24 09:20:19;;;;;;;6.92;4.35;;;;;;;20.95;30.83;99398.84;1740761;81;21605;-71
2022/04/24 09:22:48;;;;;;;5.08;3.80;;;;;;;21.47;30.16;99380.64;1738722;81;21001;-71
2022/04/24 09:25:15;;;;;;;4.80;3.80;;;;;;;21.11;28.26;99391.08;1743876;81;21921;-71
2022/04/24 09:27:42;;;;;;;5.22;3.77;;;;;;;20.68;29.99;99396.85;1753297;81;22217;-73
2022/04/24 09:30:15;;;;;;;4.92;3.75;;;;;;;20.56;29.83;99392.59;1721036;81;21076;-72
2022/04/24 09:32:50;;;;;;;5.58;4.03;;;;;;;20.84;30.28;99392.29;1732056;81;21080;-72
2022/04/24 09:35:39;;;;;;;18.20;10.23;;;;;;;21.38;30.74;99392.19;1727434;81;20993;-71
2022/04/24 09:38:15;;;;;;;5.37;3.33;;;;;;;21.85;30.51;99389.53;1747889;81;21203;-70
2022/04/24 09:40:48;;;;;;;5.15;3.02;;;;;;;21.70;27.97;99392.36;1745089;81;21021;-71
2022/04/24 09:43:19;;;;;;;3.83;3.27;;;;;;;20.81;29.02;99404.63;1743607;81;21029;-71
2022/04/24 09:45:53;;;;;;;3.90;3.02;;;;;;;20.71;29.22;99408.14;1754579;81;22641;-71
2022/04/24 09:48:21;;;;;;;4.50;3.10;;;;;;;21.01;29.35;99396.11;1738572;81;21017;-72
2022/04/24 09:50:49;;;;;;;3.90;3.50;;;;;;;21.16;28.40;99410.73;1747763;81;21224;-70
2022/04/24 09:53:19;;;;;;;4.67;3.15;;;;;;;21.45;29.81;99403.20;1734886;81;21480;-70
2022/04/24 09:55:52;;;;;;;5.58;2.80;;;;;;;22.03;28.16;99400.83;1744398;81;23237;-70
2022/04/24 09:58:17;;;;;;;4.05;3.35;;;;;;;22.40;28.33;99400.30;1727133;81;21091;-72
2022/04/24 10:00:45;;;;;;;3.80;2.95;;;;;;;22.61;27.62;99403.20;1741840;81;20998;-71
2022/04/24 10:03:15;;;;;;;4.05;2.87;;;;;;;22.69;28.17;99399.28;1744073;81;21561;-69
2022/04/24 10:05:45;;;;;;;4.80;3.02;;;;;;;22.66;27.45;99402.28;1739653;81;21057;-70
2022/04/24 10:08:14;;;;;;;3.02;2.70;;;;;;;22.73;27.11;99408.72;1737128;81;21085;-70
2022/04/24 10:10:43;;;;;;;3.55;2.62;;;;;;;22.31;26.60;99418.62;1731062;81;21091;-71
2022/04/24 10:13:12;;;;;;;4.70;3.17;;;;;;;21.37;27.76;99410.09;1731145;81;21069;-72
2022/04/24 10:15:47;;;;;;;3.50;3.20;;;;;;;21.18;28.42;99411.94;1751682;81;21578;-72
2022/04/24 10:18:33;;;;;;;4.65;4.08;;;;;;;21.20;29.23;99416.67;1754375;81;21096;-72
2022/04/24 10:21:50;;;;;;;3.05;2.65;;;;;;;21.51;28.59;99410.17;1732886;81;21044;-71
2022/04/24 10:24:18;;;;;;;4.60;2.72;;;;;;;21.89;27.65;99411.03;1727465;81;21024;-72
2022/04/24 10:26:53;;;;;;;4.50;3.40;;;;;;;22.26;28.06;99411.53;1751979;81;21120;-71
2022/04/24 10:29:21;;;;;;;6.00;3.30;;;;;;;21.89;28.13;99411.03;1738431;81;21117;-71
2022/04/24 10:31:49;;;;;;;4.60;2.80;;;;;;;21.55;27.73;99406.19;1738724;81;21045;-70
2022/04/24 10:34:18;;;;;;;3.87;3.30;;;;;;;20.74;29.93;99415.88;1726709;82;21049;-71
2022/04/24 10:36:58;;;;;;;4.85;3.72;;;;;;;20.47;29.48;99421.01;1727291;82;21032;-71
2022/04/24 10:39:29;;;;;;;4.42;3.30;;;;;;;20.54;29.21;99418.13;1727142;82;21006;-71
2022/04/24 10:42:08;;;;;;;4.03;3.10;;;;;;;20.95;30.30;99413.56;1727296;82;21084;-71
2022/04/24 10:44:34;;;;;;;3.30;2.87;;;;;;;21.40;29.58;99414.35;1726567;82;21231;-70
2022/04/24 10:47:13;;;;;;;3.42;2.80;;;;;;;21.85;28.40;99406.95;1725711;82;21549;-72
2022/04/24 10:49:40;;;;;;;6.10;3.10;;;;;;;21.90;28.18;99405.17;1727536;82;21032;-71
2022/04/24 10:52:07;;;;;;;4.33;2.60;;;;;;;21.73;28.50;99412.16;1726958;82;21557;-71
2022/04/24 10:54:38;;;;;;;4.37;2.80;;;;;;;21.84;28.66;99412.48;1727352;82;21565;-71
2022/04/24 10:57:22;;;;;;;4.47;3.65;;;;;;;22.12;28.31;99416.87;1727129;82;21405;-72
2022/04/24 10:59:55;;;;;;;3.52;2.95;;;;;;;22.40;28.31;99415.05;1727292;82;21095;-71
2022/04/24 11:02:30;;;;;;;3.92;3.00;;;;;;;22.69;28.37;99409.17;1727163;82;21637;-71
2022/04/24 11:05:06;;;;;;;4.97;3.60;;;;;;;22.89;27.77;99407.16;1727406;82;21048;-71
2022/04/24 11:07:33;;;;;;;3.52;3.20;;;;;;;22.94;26.38;99411.60;1726896;82;21214;-70
2022/04/24 11:10:05;;;;;;;4.28;3.87;;;;;;;22.51;27.42;99418.03;1725624;82;21119;-71
2022/04/24 11:12:35;;;;;;;4.25;3.37;;;;;;;22.15;27.59;99415.72;1726251;82;21600;-71
2022/04/24 11:15:07;;;;;;;3.45;3.02;;;;;;;22.23;28.31;99417.20;1727379;82;21080;-72
2022/04/24 11:17:37;;;;;;;3.65;3.25;;;;;;;22.52;28.40;99414.37;1725683;82;21354;-72
2022/04/24 11:20:11;;;;;;;4.25;3.37;;;;;;;22.62;27.85;99407.09;1734200;82;21092;-70
2022/04/24 11:22:55;;;;;;;3.30;3.00;;;;;;;22.45;27.41;99408.39;1726500;82;21077;-70
2022/04/24 11:25:25;;;;;;;4.45;3.70;;;;;;;22.14;28.69;99410.02;1727422;82;21020;-71
2022/04/24 11:27:57;;;;;;;3.92;3.50;;;;;;;22.02;29.34;99407.16;1727189;82;21054;-71
2022/04/24 11:30:31;;;;;;;6.53;4.10;;;;;;;22.09;28.46;99414.49;1727528;82;21053;-70
2022/04/24 11:33:06;;;;;;;4.85;4.08;;;;;;;22.18;29.00;99408.23;1727951;82;21119;-70
2022/04/24 11:35:41;;;;;;;4.67;3.83;;;;;;;22.44;29.29;99406.72;1726672;82;21081;-70
2022/04/24 11:38:13;;;;;;;3.70;3.17;;;;;;;22.73;29.25;99404.69;1707192;82;21154;-72